Terminal Aerodrome Forecast
Issued by NWS

Home | Current Version | Previous Version | Text Only | Print | Product List | Glossary Off
Versions: 1 2 3 4 5 6 7 8 9 10 11 12

962
FTUS43 KFGF 281720
TAFBJI
TAF
KBJI 281720Z 2818/2918 02005KT P6SM BKN060
     FM282100 01006KT P6SM SCT060
     FM290500 00000KT P6SM FEW250=

USA.gov is the U.S. government's official web portal to all federal, state and local government web resources and services.